sensor_id;sensor_type;location;lat;lon;timestamp;pressure;altitude;pressure_sealevel;temperature;humidity
20013;BME280;10167;42.852;23.042;2023-05-21T00:00:52;58406.56;;;-144.14;100.00
20013;BME280;10167;42.852;23.042;2023-05-21T00:03:22;58406.56;;;-144.14;100.00
20013;BME280;10167;42.852;23.042;2023-05-21T00:05:53;58406.56;;;-144.14;100.00
20013;BME280;10167;42.852;23.042;2023-05-21T00:08:23;58406.56;;;-144.14;100.00
20013;BME280;10167;42.852;23.042;2023-05-21T00:10:52;58406.56;;;-144.14;100.00
20013;BME280;10167;42.852;23.042;2023-05-21T00:13:21;58406.56;;;-144.14;100.00
20013;BME280;10167;42.852;23.042;2023-05-21T00:15:52;58406.56;;;-144.14;100.00
20013;BME280;10167;42.852;23.042;2023-05-21T00:18:21;58406.56;;;-144.14;100.00
20013;BME280;10167;42.852;23.042;2023-05-21T00:20:51;58406.56;;;-144.14;100.00
20013;BME280;10167;42.852;23.042;2023-05-21T00:23:21;58406.56;;;-144.14;100.00
20013;BME280;10167;42.852;23.042;2023-05-21T00:25:50;58406.56;;;-144.14;100.00
20013;BME280;10167;42.852;23.042;2023-05-21T00:28:19;58406.56;;;-144.14;100.00
20013;BME280;10167;42.852;23.042;2023-05-21T00:30:49;58406.56;;;-144.14;100.00
20013;BME280;10167;42.852;23.042;2023-05-21T00:33:23;58406.56;;;-144.14;100.00
20013;BME280;10167;42.852;23.042;2023-05-21T00:35:53;58406.56;;;-144.14;100.00
20013;BME280;10167;42.852;23.042;2023-05-21T00:38:23;58406.56;;;-144.14;100.00
20013;BME280;10167;42.852;23.042;2023-05-21T00:40:55;58406.56;;;-144.14;100.00
20013;BME280;10167;42.852;23.042;2023-05-21T00:43:24;58406.56;;;-144.14;100.00
20013;BME280;10167;42.852;23.042;2023-05-21T00:45:53;58406.56;;;-144.14;100.00
20013;BME280;10167;42.852;23.042;2023-05-21T00:48:24;58406.56;;;-144.14;100.00
20013;BME280;10167;42.852;23.042;2023-05-21T00:50:54;58406.56;;;-144.14;100.00
20013;BME280;10167;42.852;23.042;2023-05-21T00:53:23;58406.56;;;-144.14;100.00
20013;BME280;10167;42.852;23.042;2023-05-21T00:55:52;58406.56;;;-144.14;100.00
20013;BME280;10167;42.852;23.042;2023-05-21T00:58:21;58406.56;;;-144.14;100.00
20013;BME280;10167;42.852;23.042;2023-05-21T01:00:52;58406.56;;;-144.14;100.00
20013;BME280;10167;42.852;23.042;2023-05-21T01:03:23;58406.56;;;-144.14;100.00
20013;BME280;10167;42.852;23.042;2023-05-21T01:05:53;58406.56;;;-144.14;100.00
20013;BME280;10167;42.852;23.042;2023-05-21T01:08:26;58406.56;;;-144.14;100.00
20013;BME280;10167;42.852;23.042;2023-05-21T01:10:56;58406.56;;;-144.14;100.00
20013;BME280;10167;42.852;23.042;2023-05-21T01:13:42;94732.78;;;12.18;100.00
20013;BME280;10167;42.852;23.042;2023-05-21T01:16:12;94720.59;;;12.22;100.00
20013;BME280;10167;42.852;23.042;2023-05-21T01:18:42;94722.84;;;12.35;100.00
20013;BME280;10167;42.852;23.042;2023-05-21T01:21:13;94722.94;;;12.45;100.00
20013;BME280;10167;42.852;23.042;2023-05-21T01:23:45;94718.50;;;12.24;100.00
20013;BME280;10167;42.852;23.042;2023-05-21T01:26:14;94717.44;;;12.25;100.00
20013;BME280;10167;42.852;23.042;2023-05-21T01:28:44;94725.41;;;12.25;100.00
20013;BME280;10167;42.852;23.042;2023-05-21T01:31:20;94723.56;;;12.25;100.00
20013;BME280;10167;42.852;23.042;2023-05-21T01:33:55;94720.88;;;11.98;100.00
20013;BME280;10167;42.852;23.042;2023-05-21T01:36:33;94719.06;;;11.77;100.00
20013;BME280;10167;42.852;23.042;2023-05-21T01:39:08;94724.81;;;11.74;100.00
20013;BME280;10167;42.852;23.042;2023-05-21T01:41:44;94722.28;;;11.79;100.00
20013;BME280;10167;42.852;23.042;2023-05-21T01:44:17;94723.16;;;11.68;100.00
20013;BME280;10167;42.852;23.042;2023-05-21T01:46:46;94719.84;;;11.56;100.00
20013;BME280;10167;42.852;23.042;2023-05-21T01:49:16;94708.31;;;11.45;100.00
20013;BME280;10167;42.852;23.042;2023-05-21T01:51:47;94702.41;;;11.38;100.00
20013;BME280;10167;42.852;23.042;2023-05-21T01:54:17;94714.34;;;11.41;100.00
20013;BME280;10167;42.852;23.042;2023-05-21T01:56:48;94697.25;;;11.32;100.00
20013;BME280;10167;42.852;23.042;2023-05-21T01:59:17;94695.03;;;11.23;100.00
20013;BME280;10167;42.852;23.042;2023-05-21T02:01:46;94700.41;;;11.28;100.00
20013;BME280;10167;42.852;23.042;2023-05-21T02:04:16;94690.69;;;11.17;100.00
20013;BME280;10167;42.852;23.042;2023-05-21T02:06:45;94695.13;;;11.50;100.00
20013;BME280;10167;42.852;23.042;2023-05-21T02:09:14;94695.41;;;11.54;100.00
20013;BME280;10167;42.852;23.042;2023-05-21T02:11:44;94691.03;;;11.43;100.00
20013;BME280;10167;42.852;23.042;2023-05-21T02:14:14;94686.19;;;11.78;100.00
20013;BME280;10167;42.852;23.042;2023-05-21T02:16:43;94683.03;;;11.59;100.00
20013;BME280;10167;42.852;23.042;2023-05-21T02:19:13;94686.03;;;11.68;100.00
20013;BME280;10167;42.852;23.042;2023-05-21T02:21:42;94690.19;;;11.81;100.00
20013;BME280;10167;42.852;23.042;2023-05-21T02:24:13;94686.16;;;12.00;100.00
20013;BME280;10167;42.852;23.042;2023-05-21T02:26:44;94680.59;;;12.02;100.00
20013;BME280;10167;42.852;23.042;2023-05-21T02:29:15;94685.53;;;12.20;100.00
20013;BME280;10167;42.852;23.042;2023-05-21T02:31:44;94686.47;;;12.09;100.00
20013;BME280;10167;42.852;23.042;2023-05-21T02:34:13;94684.09;;;12.07;100.00
20013;BME280;10167;42.852;23.042;2023-05-21T02:36:43;94677.44;;;12.05;100.00
20013;BME280;10167;42.852;23.042;2023-05-21T02:39:14;94684.94;;;11.86;100.00
20013;BME280;10167;42.852;23.042;2023-05-21T02:41:45;94693.09;;;11.79;100.00
20013;BME280;10167;42.852;23.042;2023-05-21T02:44:15;94692.28;;;11.57;100.00
20013;BME280;10167;42.852;23.042;2023-05-21T02:46:45;94684.69;;;11.22;100.00
20013;BME280;10167;42.852;23.042;2023-05-21T02:49:16;94692.31;;;11.18;100.00
20013;BME280;10167;42.852;23.042;2023-05-21T02:51:47;94692.38;;;11.02;100.00
20013;BME280;10167;42.852;23.042;2023-05-21T02:54:16;94686.13;;;10.91;100.00
20013;BME280;10167;42.852;23.042;2023-05-21T02:56:46;94689.94;;;11.00;100.00
20013;BME280;10167;42.852;23.042;2023-05-21T02:59:15;94693.31;;;11.12;100.00
20013;BME280;10167;42.852;23.042;2023-05-21T03:01:45;94689.19;;;10.83;100.00
20013;BME280;10167;42.852;23.042;2023-05-21T03:04:14;94689.53;;;10.70;100.00
20013;BME280;10167;42.852;23.042;2023-05-21T03:06:43;94683.91;;;10.66;100.00
20013;BME280;10167;42.852;23.042;2023-05-21T03:09:13;94689.09;;;10.61;100.00
20013;BME280;10167;42.852;23.042;2023-05-21T03:11:42;94685.91;;;10.59;100.00
20013;BME280;10167;42.852;23.042;2023-05-21T03:14:13;94683.25;;;10.76;100.00
20013;BME280;10167;42.852;23.042;2023-05-21T03:16:42;94688.06;;;10.79;100.00
20013;BME280;10167;42.852;23.042;2023-05-21T03:19:12;94685.19;;;10.80;100.00
20013;BME280;10167;42.852;23.042;2023-05-21T03:21:41;94689.81;;;10.90;100.00
20013;BME280;10167;42.852;23.042;2023-05-21T03:24:11;94684.41;;;11.02;100.00
20013;BME280;10167;42.852;23.042;2023-05-21T03:26:41;94686.41;;;11.11;100.00
20013;BME280;10167;42.852;23.042;2023-05-21T03:29:10;94682.09;;;11.05;100.00
20013;BME280;10167;42.852;23.042;2023-05-21T03:31:43;94682.50;;;11.19;100.00
20013;BME280;10167;42.852;23.042;2023-05-21T03:34:13;94684.13;;;11.20;100.00
20013;BME280;10167;42.852;23.042;2023-05-21T03:36:43;94690.09;;;11.10;100.00
20013;BME280;10167;42.852;23.042;2023-05-21T03:39:12;94692.25;;;11.13;100.00
20013;BME280;10167;42.852;23.042;2023-05-21T03:41:42;94694.22;;;11.01;100.00
20013;BME280;10167;42.852;23.042;2023-05-21T03:44:28;94690.28;;;11.04;100.00
20013;BME280;10167;42.852;23.042;2023-05-21T03:47:17;94700.94;;;11.09;100.00
20013;BME280;10167;42.852;23.042;2023-05-21T03:49:48;94689.66;;;11.18;100.00
20013;BME280;10167;42.852;23.042;2023-05-21T03:52:18;94696.81;;;11.18;100.00
20013;BME280;10167;42.852;23.042;2023-05-21T03:54:47;94694.78;;;11.03;100.00
20013;BME280;10167;42.852;23.042;2023-05-21T03:57:16;94693.41;;;10.84;100.00
20013;BME280;10167;42.852;23.042;2023-05-21T03:59:46;94693.34;;;10.79;100.00
20013;BME280;10167;42.852;23.042;2023-05-21T04:02:17;94694.88;;;10.91;100.00
20013;BME280;10167;42.852;23.042;2023-05-21T04:04:47;94693.09;;;10.97;100.00
20013;BME280;10167;42.852;23.042;2023-05-21T04:07:18;94694.78;;;11.03;100.00
20013;BME280;10167;42.852;23.042;2023-05-21T04:09:47;94687.38;;;11.05;100.00
20013;BME280;10167;42.852;23.042;2023-05-21T04:12:18;94683.25;;;11.14;100.00
20013;BME280;10167;42.852;23.042;2023-05-21T04:14:48;94696.06;;;11.39;100.00
20013;BME280;10167;42.852;23.042;2023-05-21T04:17:19;94696.47;;;11.53;100.00
20013;BME280;10167;42.852;23.042;2023-05-21T04:19:49;94695.34;;;11.71;100.00
20013;BME280;10167;42.852;23.042;2023-05-21T04:22:19;94697.91;;;11.82;100.00
20013;BME280;10167;42.852;23.042;2023-05-21T04:24:49;94692.50;;;11.99;100.00
20013;BME280;10167;42.852;23.042;2023-05-21T04:27:24;94697.25;;;11.97;100.00
20013;BME280;10167;42.852;23.042;2023-05-21T04:29:53;94693.84;;;12.02;100.00
20013;BME280;10167;42.852;23.042;2023-05-21T04:32:25;94699.06;;;11.91;100.00
20013;BME280;10167;42.852;23.042;2023-05-21T04:34:55;94696.97;;;11.93;100.00
20013;BME280;10167;42.852;23.042;2023-05-21T04:37:24;94705.03;;;12.04;100.00
20013;BME280;10167;42.852;23.042;2023-05-21T04:39:55;94703.44;;;12.29;100.00
20013;BME280;10167;42.852;23.042;2023-05-21T04:42:25;94707.88;;;12.51;100.00
20013;BME280;10167;42.852;23.042;2023-05-21T04:44:55;94707.97;;;12.66;100.00
20013;BME280;10167;42.852;23.042;2023-05-21T04:47:30;94706.72;;;12.73;100.00
20013;BME280;10167;42.852;23.042;2023-05-21T04:50:04;94706.16;;;12.71;100.00
20013;BME280;10167;42.852;23.042;2023-05-21T04:52:33;94719.47;;;12.71;100.00
20013;BME280;10167;42.852;23.042;2023-05-21T04:55:04;94712.28;;;12.72;100.00
20013;BME280;10167;42.852;23.042;2023-05-21T04:57:33;94716.31;;;12.75;100.00
20013;BME280;10167;42.852;23.042;2023-05-21T05:00:04;94716.00;;;12.71;100.00
20013;BME280;10167;42.852;23.042;2023-05-21T05:02:40;94713.13;;;12.46;100.00
20013;BME280;10167;42.852;23.042;2023-05-21T05:05:10;94716.19;;;12.32;100.00
20013;BME280;10167;42.852;23.042;2023-05-21T05:07:39;94711.66;;;12.28;100.00
20013;BME280;10167;42.852;23.042;2023-05-21T05:10:08;94706.13;;;12.34;100.00
20013;BME280;10167;42.852;23.042;2023-05-21T05:12:37;94712.81;;;12.42;100.00
20013;BME280;10167;42.852;23.042;2023-05-21T05:15:07;94706.03;;;12.56;100.00
20013;BME280;10167;42.852;23.042;2023-05-21T05:17:37;94709.63;;;12.72;100.00
20013;BME280;10167;42.852;23.042;2023-05-21T05:20:09;94704.47;;;12.92;100.00
20013;BME280;10167;42.852;23.042;2023-05-21T05:22:38;94709.72;;;12.87;100.00
20013;BME280;10167;42.852;23.042;2023-05-21T05:25:08;94707.75;;;13.09;100.00
20013;BME280;10167;42.852;23.042;2023-05-21T05:27:37;94713.69;;;13.17;100.00
20013;BME280;10167;42.852;23.042;2023-05-21T05:30:08;94703.41;;;13.30;100.00
20013;BME280;10167;42.852;23.042;2023-05-21T05:32:37;94707.16;;;13.39;100.00
20013;BME280;10167;42.852;23.042;2023-05-21T05:35:09;94704.53;;;13.44;100.00
20013;BME280;10167;42.852;23.042;2023-05-21T05:37:38;94709.06;;;13.49;100.00
20013;BME280;10167;42.852;23.042;2023-05-21T05:40:08;94703.66;;;13.34;100.00
20013;BME280;10167;42.852;23.042;2023-05-21T05:42:37;94713.88;;;13.52;100.00
20013;BME280;10167;42.852;23.042;2023-05-21T05:45:11;94708.03;;;13.50;100.00
20013;BME280;10167;42.852;23.042;2023-05-21T05:47:41;94708.31;;;13.59;100.00
20013;BME280;10167;42.852;23.042;2023-05-21T05:50:11;94710.53;;;13.82;100.00
20013;BME280;10167;42.852;23.042;2023-05-21T05:52:40;94706.34;;;13.96;100.00
20013;BME280;10167;42.852;23.042;2023-05-21T05:55:10;94709.03;;;14.16;100.00
20013;BME280;10167;42.852;23.042;2023-05-21T05:57:39;94716.59;;;14.50;100.00
20013;BME280;10167;42.852;23.042;2023-05-21T06:00:14;94711.78;;;14.67;100.00
20013;BME280;10167;42.852;23.042;2023-05-21T06:02:47;94710.72;;;14.94;100.00
20013;BME280;10167;42.852;23.042;2023-05-21T06:05:18;94709.09;;;15.13;100.00
20013;BME280;10167;42.852;23.042;2023-05-21T06:07:48;94712.53;;;15.39;100.00
20013;BME280;10167;42.852;23.042;2023-05-21T06:10:19;94714.34;;;15.64;100.00
20013;BME280;10167;42.852;23.042;2023-05-21T06:12:48;94709.16;;;15.92;100.00
20013;BME280;10167;42.852;23.042;2023-05-21T06:15:18;94715.13;;;16.28;100.00
20013;BME280;10167;42.852;23.042;2023-05-21T06:17:47;94710.66;;;16.58;100.00
20013;BME280;10167;42.852;23.042;2023-05-21T06:20:18;94712.09;;;16.84;100.00
20013;BME280;10167;42.852;23.042;2023-05-21T06:22:47;94700.56;;;17.18;100.00
20013;BME280;10167;42.852;23.042;2023-05-21T06:25:16;94710.09;;;17.53;100.00
20013;BME280;10167;42.852;23.042;2023-05-21T06:27:46;94698.28;;;17.83;100.00
20013;BME280;10167;42.852;23.042;2023-05-21T06:30:20;94696.69;;;18.24;100.00
20013;BME280;10167;42.852;23.042;2023-05-21T06:32:50;94696.63;;;18.48;100.00
20013;BME280;10167;42.852;23.042;2023-05-21T06:35:24;94704.59;;;18.72;100.00
20013;BME280;10167;42.852;23.042;2023-05-21T06:37:53;94687.13;;;19.07;100.00
20013;BME280;10167;42.852;23.042;2023-05-21T06:40:24;94688.78;;;19.35;100.00
20013;BME280;10167;42.852;23.042;2023-05-21T06:42:56;94689.31;;;19.51;100.00
20013;BME280;10167;42.852;23.042;2023-05-21T06:45:36;94683.84;;;19.83;100.00
20013;BME280;10167;42.852;23.042;2023-05-21T06:48:17;94673.47;;;20.04;100.00
20013;BME280;10167;42.852;23.042;2023-05-21T06:50:49;94675.22;;;20.22;100.00
20013;BME280;10167;42.852;23.042;2023-05-21T06:53:18;94674.50;;;20.44;100.00
20013;BME280;10167;42.852;23.042;2023-05-21T06:55:48;94672.94;;;20.65;100.00
20013;BME280;10167;42.852;23.042;2023-05-21T06:58:27;94676.81;;;20.73;100.00
20013;BME280;10167;42.852;23.042;2023-05-21T07:00:58;94678.25;;;20.79;100.00
20013;BME280;10167;42.852;23.042;2023-05-21T07:03:27;94677.06;;;20.85;100.00
20013;BME280;10167;42.852;23.042;2023-05-21T07:05:58;94674.91;;;20.96;100.00
20013;BME280;10167;42.852;23.042;2023-05-21T07:08:28;94678.69;;;20.95;100.00
20013;BME280;10167;42.852;23.042;2023-05-21T07:10:58;94675.41;;;20.98;100.00
20013;BME280;10167;42.852;23.042;2023-05-21T07:13:28;94666.28;;;21.30;100.00
20013;BME280;10167;42.852;23.042;2023-05-21T07:15:58;94670.19;;;21.55;100.00
20013;BME280;10167;42.852;23.042;2023-05-21T07:18:33;94668.66;;;21.71;100.00
20013;BME280;10167;42.852;23.042;2023-05-21T07:21:03;94674.91;;;21.89;100.00
20013;BME280;10167;42.852;23.042;2023-05-21T07:23:33;94669.38;;;21.94;100.00
20013;BME280;10167;42.852;23.042;2023-05-21T07:26:02;94677.25;;;21.82;100.00
20013;BME280;10167;42.852;23.042;2023-05-21T07:28:32;94673.75;;;21.81;100.00
20013;BME280;10167;42.852;23.042;2023-05-21T07:31:01;94676.03;;;21.96;100.00
20013;BME280;10167;42.852;23.042;2023-05-21T07:33:37;94665.88;;;21.93;100.00
20013;BME280;10167;42.852;23.042;2023-05-21T07:36:09;94662.91;;;22.03;100.00
20013;BME280;10167;42.852;23.042;2023-05-21T07:38:39;94659.16;;;22.48;100.00
20013;BME280;10167;42.852;23.042;2023-05-21T07:41:09;94665.81;;;22.59;100.00
20013;BME280;10167;42.852;23.042;2023-05-21T07:43:39;94680.91;;;22.42;99.17
20013;BME280;10167;42.852;23.042;2023-05-21T07:46:08;94680.28;;;22.45;100.00
20013;BME280;10167;42.852;23.042;2023-05-21T07:48:39;94682.34;;;22.31;96.75
20013;BME280;10167;42.852;23.042;2023-05-21T07:51:11;94684.06;;;22.19;94.98
20013;BME280;10167;42.852;23.042;2023-05-21T07:53:40;94686.44;;;22.20;95.74
20013;BME280;10167;42.852;23.042;2023-05-21T07:56:15;94682.53;;;21.95;94.22
20013;BME280;10167;42.852;23.042;2023-05-21T07:58:45;94688.06;;;21.90;97.94
20013;BME280;10167;42.852;23.042;2023-05-21T08:01:15;94675.25;;;21.96;96.80
20013;BME280;10167;42.852;23.042;2023-05-21T08:03:44;94680.69;;;22.04;95.84
20013;BME280;10167;42.852;23.042;2023-05-21T08:06:15;94681.78;;;22.03;96.05
20013;BME280;10167;42.852;23.042;2023-05-21T08:08:44;94674.69;;;22.25;96.56
20013;BME280;10167;42.852;23.042;2023-05-21T08:11:14;94679.78;;;22.26;96.85
20013;BME280;10167;42.852;23.042;2023-05-21T08:13:45;94670.25;;;22.20;95.95
20013;BME280;10167;42.852;23.042;2023-05-21T08:16:15;94674.84;;;22.20;94.89
20013;BME280;10167;42.852;23.042;2023-05-21T08:18:44;94679.63;;;22.40;91.58
20013;BME280;10167;42.852;23.042;2023-05-21T08:21:15;94687.72;;;22.40;85.38
20013;BME280;10167;42.852;23.042;2023-05-21T08:23:45;94687.09;;;22.52;82.75
20013;BME280;10167;42.852;23.042;2023-05-21T08:26:14;94699.63;;;22.48;82.08
20013;BME280;10167;42.852;23.042;2023-05-21T08:28:44;94681.53;;;22.39;87.94
20013;BME280;10167;42.852;23.042;2023-05-21T08:31:13;94687.41;;;22.50;90.35
20013;BME280;10167;42.852;23.042;2023-05-21T08:33:49;94675.69;;;22.63;86.82
20013;BME280;10167;42.852;23.042;2023-05-21T08:36:27;94683.78;;;22.80;88.88
20013;BME280;10167;42.852;23.042;2023-05-21T08:39:02;94687.16;;;22.86;86.85
20013;BME280;10167;42.852;23.042;2023-05-21T08:41:34;94677.75;;;23.01;89.55
20013;BME280;10167;42.852;23.042;2023-05-21T08:44:10;94682.91;;;23.40;84.59
20013;BME280;10167;42.852;23.042;2023-05-21T08:46:40;94697.25;;;23.32;78.37
20013;BME280;10167;42.852;23.042;2023-05-21T08:49:14;94692.59;;;23.50;74.24
20013;BME280;10167;42.852;23.042;2023-05-21T08:51:47;94694.63;;;23.62;73.97
20013;BME280;10167;42.852;23.042;2023-05-21T08:54:18;94683.34;;;23.68;75.28
20013;BME280;10167;42.852;23.042;2023-05-21T08:56:47;94693.78;;;23.78;75.35
20013;BME280;10167;42.852;23.042;2023-05-21T08:59:17;94700.25;;;23.39;72.68
20013;BME280;10167;42.852;23.042;2023-05-21T09:01:49;94710.63;;;23.20;72.97
20013;BME280;10167;42.852;23.042;2023-05-21T09:04:25;94694.91;;;22.96;78.04
20013;BME280;10167;42.852;23.042;2023-05-21T09:06:57;94706.81;;;23.21;76.68
20013;BME280;10167;42.852;23.042;2023-05-21T09:09:54;94693.25;;;23.38;74.96
20013;BME280;10167;42.852;23.042;2023-05-21T09:12:25;94697.53;;;23.57;73.84
20013;BME280;10167;42.852;23.042;2023-05-21T09:14:58;94686.06;;;23.60;72.87
20013;BME280;10167;42.852;23.042;2023-05-21T09:17:34;94686.38;;;23.67;74.20
20013;BME280;10167;42.852;23.042;2023-05-21T09:20:27;94683.66;;;23.67;74.56
20013;BME280;10167;42.852;23.042;2023-05-21T09:23:03;94687.13;;;24.05;72.72
20013;BME280;10167;42.852;23.042;2023-05-21T09:25:36;94680.06;;;23.92;73.83
20013;BME280;10167;42.852;23.042;2023-05-21T09:28:11;94678.50;;;23.82;73.09
20013;BME280;10167;42.852;23.042;2023-05-21T09:30:44;94677.19;;;23.50;71.79
20013;BME280;10167;42.852;23.042;2023-05-21T09:33:23;94676.13;;;23.81;75.55
20013;BME280;10167;42.852;23.042;2023-05-21T09:35:53;94672.91;;;24.17;72.40
20013;BME280;10167;42.852;23.042;2023-05-21T09:38:25;94675.88;;;23.95;73.70
20013;BME280;10167;42.852;23.042;2023-05-21T09:40:54;94667.50;;;24.17;75.76
20013;BME280;10167;42.852;23.042;2023-05-21T09:43:27;94674.03;;;24.45;75.41
20013;BME280;10167;42.852;23.042;2023-05-21T09:46:04;94668.78;;;24.49;74.62
20013;BME280;10167;42.852;23.042;2023-05-21T09:48:35;94673.25;;;24.66;72.81
20013;BME280;10167;42.852;23.042;2023-05-21T09:51:11;94668.22;;;24.55;68.68
20013;BME280;10167;42.852;23.042;2023-05-21T09:53:48;94662.53;;;24.28;68.78
20013;BME280;10167;42.852;23.042;2023-05-21T09:56:20;94666.56;;;24.63;68.74
20013;BME280;10167;42.852;23.042;2023-05-21T09:58:52;94655.88;;;24.46;66.92
20013;BME280;10167;42.852;23.042;2023-05-21T10:01:23;94664.06;;;24.58;67.58
20013;BME280;10167;42.852;23.042;2023-05-21T10:03:54;94659.13;;;24.60;65.20
20013;BME280;10167;42.852;23.042;2023-05-21T10:06:26;94651.56;;;24.86;67.44
20013;BME280;10167;42.852;23.042;2023-05-21T10:09:00;94657.66;;;24.42;62.18
20013;BME280;10167;42.852;23.042;2023-05-21T10:11:32;94655.66;;;24.01;65.72
20013;BME280;10167;42.852;23.042;2023-05-21T10:14:04;94662.19;;;23.62;68.77
20013;BME280;10167;42.852;23.042;2023-05-21T10:16:35;94644.59;;;23.38;67.32
20013;BME280;10167;42.852;23.042;2023-05-21T10:19:05;94646.66;;;23.41;69.37
20013;BME280;10167;42.852;23.042;2023-05-21T10:21:37;94644.59;;;23.85;67.16
20013;BME280;10167;42.852;23.042;2023-05-21T10:24:09;94646.94;;;23.95;67.06
20013;BME280;10167;42.852;23.042;2023-05-21T10:26:40;94637.59;;;23.93;65.61
20013;BME280;10167;42.852;23.042;2023-05-21T10:29:10;94650.63;;;23.91;67.61
20013;BME280;10167;42.852;23.042;2023-05-21T10:31:42;94631.59;;;24.37;75.56
20013;BME280;10167;42.852;23.042;2023-05-21T10:34:16;94627.69;;;24.26;72.86
20013;BME280;10167;42.852;23.042;2023-05-21T10:36:48;94634.81;;;24.31;73.90
20013;BME280;10167;42.852;23.042;2023-05-21T10:39:20;94633.03;;;24.35;71.91
20013;BME280;10167;42.852;23.042;2023-05-21T10:41:55;94631.78;;;24.32;72.68
20013;BME280;10167;42.852;23.042;2023-05-21T10:44:35;94628.34;;;24.44;71.15
20013;BME280;10167;42.852;23.042;2023-05-21T10:47:36;94630.00;;;24.57;70.36
20013;BME280;10167;42.852;23.042;2023-05-21T10:50:25;94629.66;;;24.79;77.39
20013;BME280;10167;42.852;23.042;2023-05-21T10:53:03;94636.47;;;24.23;61.80
20013;BME280;10167;42.852;23.042;2023-05-21T10:55:51;94633.69;;;24.32;64.47
20013;BME280;10167;42.852;23.042;2023-05-21T11:01:20;94640.28;;;24.43;60.35
20013;BME280;10167;42.852;23.042;2023-05-21T11:03:50;94631.84;;;24.65;60.67
20013;BME280;10167;42.852;23.042;2023-05-21T11:06:24;94627.34;;;24.69;59.89
20013;BME280;10167;42.852;23.042;2023-05-21T11:08:53;94613.41;;;24.79;58.57
20013;BME280;10167;42.852;23.042;2023-05-21T11:11:43;94615.75;;;25.02;62.21
20013;BME280;10167;42.852;23.042;2023-05-21T11:14:29;94615.78;;;24.81;57.15
20013;BME280;10167;42.852;23.042;2023-05-21T11:17:03;94623.19;;;24.92;59.43
20013;BME280;10167;42.852;23.042;2023-05-21T11:19:36;94627.63;;;25.09;60.62
20013;BME280;10167;42.852;23.042;2023-05-21T11:22:07;94622.91;;;25.18;55.93
20013;BME280;10167;42.852;23.042;2023-05-21T11:24:39;94622.34;;;25.13;57.71
20013;BME280;10167;42.852;23.042;2023-05-21T11:27:10;94604.53;;;25.24;57.71
20013;BME280;10167;42.852;23.042;2023-05-21T11:29:41;94609.06;;;25.32;55.34
20013;BME280;10167;42.852;23.042;2023-05-21T11:32:13;94606.69;;;25.43;59.67
20013;BME280;10167;42.852;23.042;2023-05-21T11:34:47;94607.16;;;25.57;54.90
20013;BME280;10167;42.852;23.042;2023-05-21T11:37:27;94604.69;;;25.64;52.71
20013;BME280;10167;42.852;23.042;2023-05-21T11:40:16;94595.44;;;25.65;51.74
20013;BME280;10167;42.852;23.042;2023-05-21T11:42:52;94611.59;;;25.86;50.70
20013;BME280;10167;42.852;23.042;2023-05-21T11:45:27;94598.34;;;26.09;48.97
20013;BME280;10167;42.852;23.042;2023-05-21T11:47:57;94600.38;;;26.36;50.42
20013;BME280;10167;42.852;23.042;2023-05-21T11:50:27;94597.88;;;26.71;52.77
20013;BME280;10167;42.852;23.042;2023-05-21T11:53:01;94597.28;;;26.77;50.33
20013;BME280;10167;42.852;23.042;2023-05-21T11:55:30;94599.88;;;26.86;51.08
20013;BME280;10167;42.852;23.042;2023-05-21T11:58:01;94590.09;;;26.97;50.88
20013;BME280;10167;42.852;23.042;2023-05-21T12:00:37;94591.28;;;26.84;49.14
20013;BME280;10167;42.852;23.042;2023-05-21T12:03:07;94596.44;;;25.97;52.33
20013;BME280;10167;42.852;23.042;2023-05-21T12:05:43;94585.22;;;25.25;55.13
20013;BME280;10167;42.852;23.042;2023-05-21T12:08:20;94577.72;;;24.44;57.28
20013;BME280;10167;42.852;23.042;2023-05-21T12:10:55;94572.38;;;24.36;59.61
20013;BME280;10167;42.852;23.042;2023-05-21T12:13:28;94570.41;;;25.11;55.66
20013;BME280;10167;42.852;23.042;2023-05-21T12:15:58;94568.78;;;25.79;52.81
20013;BME280;10167;42.852;23.042;2023-05-21T12:18:28;94582.19;;;26.00;53.30
20013;BME280;10167;42.852;23.042;2023-05-21T12:20:57;94577.22;;;26.02;50.19
20013;BME280;10167;42.852;23.042;2023-05-21T12:23:27;94573.03;;;26.17;50.24
20013;BME280;10167;42.852;23.042;2023-05-21T12:25:58;94565.09;;;26.36;52.32
20013;BME280;10167;42.852;23.042;2023-05-21T12:28:29;94575.75;;;26.57;45.77
20013;BME280;10167;42.852;23.042;2023-05-21T12:30:58;94576.53;;;27.13;45.03
20013;BME280;10167;42.852;23.042;2023-05-21T12:33:33;94579.78;;;27.19;42.19
20013;BME280;10167;42.852;23.042;2023-05-21T12:36:02;94569.09;;;27.26;41.33
20013;BME280;10167;42.852;23.042;2023-05-21T12:38:32;94559.88;;;27.46;41.29
20013;BME280;10167;42.852;23.042;2023-05-21T12:41:03;94562.25;;;27.47;41.28
20013;BME280;10167;42.852;23.042;2023-05-21T12:43:33;94557.97;;;27.62;42.89
20013;BME280;10167;42.852;23.042;2023-05-21T12:46:03;94557.44;;;27.57;43.60
20013;BME280;10167;42.852;23.042;2023-05-21T12:48:32;94555.47;;;26.26;46.29
20013;BME280;10167;42.852;23.042;2023-05-21T12:51:02;94558.59;;;25.76;49.75
20013;BME280;10167;42.852;23.042;2023-05-21T12:53:35;94554.28;;;25.14;50.49
20013;BME280;10167;42.852;23.042;2023-05-21T12:56:09;94554.28;;;24.48;53.77
20013;BME280;10167;42.852;23.042;2023-05-21T12:58:41;94568.91;;;24.06;56.88
20013;BME280;10167;42.852;23.042;2023-05-21T13:01:11;94550.41;;;23.66;57.72
20013;BME280;10167;42.852;23.042;2023-05-21T13:03:40;94558.03;;;23.35;59.73
20013;BME280;10167;42.852;23.042;2023-05-21T13:06:12;94554.47;;;23.13;61.23
20013;BME280;10167;42.852;23.042;2023-05-21T13:08:41;94550.06;;;23.00;65.08